Time;durP1;ratioP1;P1;durP2;ratioP2;P2;SDS_P1;SDS_P2;PMS_P1;PMS_P2;Temp;Humidity;BMP_temperature;BMP_pressure;BME280_temperature;BME280_humidity;BME280_pressure;Samples;Min_cycle;Max_cycle;Signal;HPM_P1;HPM_P2
2022/10/25 00:01:44;;;;;;;10.70;3.00;;;;;;;;;;5090245;28;20070;-76
2022/10/25 00:04:10;;;;;;;5.72;2.30;;;;;;;;;;5089927;28;20570;-77
2022/10/25 00:06:35;;;;;;;10.85;2.63;;;;;;;;;;5072359;28;20118;-77
2022/10/25 00:09:00;;;;;;;9.65;2.50;;;;;;;;;;5089696;28;20468;-76
2022/10/25 00:11:28;;;;;;;5.78;2.45;;;;;;;;;;5090069;28;20103;-76
2022/10/25 00:13:56;;;;;;;8.07;2.40;;;;;;;;;;5089890;28;20033;-76
2022/10/25 00:16:28;;;;;;;7.95;2.35;;;;;;;;;;5090081;28;20411;-77
2022/10/25 00:18:54;;;;;;;6.10;2.25;;;;;;;;;;5089317;28;20024;-77
2022/10/25 00:21:19;;;;;;;9.43;2.80;;;;;;;;;;5089720;28;20419;-76
2022/10/25 00:23:45;;;;;;;8.02;2.53;;;;;;;;;;5089826;28;20149;-77
2022/10/25 00:26:11;;;;;;;6.05;2.47;;;;;;;;;;5089806;28;20391;-77
2022/10/25 00:28:37;;;;;;;9.00;2.45;;;;;;;;;;5089667;28;20032;-76
2022/10/25 00:31:07;;;;;;;5.85;2.47;;;;;;;;;;5089884;28;20027;-77
2022/10/25 00:33:34;;;;;;;8.98;2.80;;;;;;;;;;5089711;28;20027;-76
2022/10/25 00:36:07;;;;;;;6.47;2.40;;;;;;;;;;5089898;28;20063;-76
2022/10/25 00:38:33;;;;;;;6.90;2.25;;;;;;;;;;5089520;28;20020;-77
2022/10/25 00:40:59;;;;;;;7.50;2.50;;;;;;;;;;5089552;28;20028;-76
2022/10/25 00:43:41;;;;;;;6.20;2.50;;;;;;;;;;5089579;28;20035;-76
2022/10/25 00:46:33;;;;;;;7.80;2.40;;;;;;;;;;5089888;28;20032;-77
2022/10/25 00:49:04;;;;;;;6.03;2.40;;;;;;;;;;5089156;28;20093;-76
2022/10/25 00:51:36;;;;;;;6.07;2.42;;;;;;;;;;5089631;28;20386;-76
2022/10/25 00:54:02;;;;;;;6.43;2.28;;;;;;;;;;5089243;28;20076;-76
2022/10/25 00:56:32;;;;;;;7.88;2.75;;;;;;;;;;5090360;28;20113;-76
2022/10/25 00:59:02;;;;;;;6.53;2.33;;;;;;;;;;5089296;28;20021;-76
2022/10/25 01:01:28;;;;;;;7.28;2.60;;;;;;;;;;5088120;28;20036;-76
2022/10/25 01:04:01;;;;;;;10.52;2.65;;;;;;;;;;5089637;28;20027;-76
2022/10/25 01:06:46;;;;;;;8.60;2.33;;;;;;;;;;5089453;28;20036;-76
2022/10/25 01:09:16;;;;;;;6.45;2.25;;;;;;;;;;5089758;28;20608;-76
2022/10/25 01:11:41;;;;;;;10.02;3.05;;;;;;;;;;5089200;28;20099;-76
2022/10/25 01:14:09;;;;;;;11.00;2.40;;;;;;;;;;5089161;28;20198;-76
2022/10/25 01:17:07;;;;;;;7.25;2.75;;;;;;;;;;5089405;28;20039;-76
2022/10/25 01:20:07;;;;;;;6.70;2.20;;;;;;;;;;5089569;28;20132;-75
2022/10/25 01:22:37;;;;;;;6.35;2.45;;;;;;;;;;5089376;28;20505;-76
2022/10/25 01:25:03;;;;;;;;;;;;;;;;;;5089998;28;20035;-76
2022/10/25 01:28:00;;;;;;;6.07;2.30;;;;;;;;;;5071073;28;19912;-76
2022/10/25 01:30:59;;;;;;;9.32;2.47;;;;;;;;;;5088896;28;20047;-76
2022/10/25 01:33:36;;;;;;;7.03;2.30;;;;;;;;;;5074578;28;20031;-76
2022/10/25 01:36:32;;;;;;;8.52;2.33;;;;;;;;;;5092678;28;20024;-75
2022/10/25 01:39:23;;;;;;;8.43;2.08;;;;;;;;;;5094554;28;20106;-76
2022/10/25 01:41:55;;;;;;;;;;;;;;;;;;5074789;28;20581;-75
2022/10/25 01:44:39;;;;;;;5.82;2.10;;;;;;;;;;5092709;28;20359;-75
2022/10/25 01:47:13;;;;;;;9.23;2.50;;;;;;;;;;5074362;28;20035;-75
2022/10/25 01:49:39;;;;;;;7.88;2.13;;;;;;;;;;5093242;28;20028;-75
2022/10/25 01:52:04;;;;;;;6.68;2.50;;;;;;;;;;5092669;28;20024;-75
2022/10/25 01:54:29;;;;;;;9.45;2.15;;;;;;;;;;5092413;28;20123;-75
2022/10/25 01:57:04;;;;;;;5.47;2.38;;;;;;;;;;5092545;28;20059;-75
2022/10/25 02:00:16;;;;;;;5.30;2.20;;;;;;;;;;5074312;28;20032;-76
2022/10/25 02:02:42;;;;;;;7.57;2.17;;;;;;;;;;5009620;28;20094;-76
2022/10/25 02:05:42;;;;;;;8.93;2.53;;;;;;;;;;5009266;28;20076;-76
2022/10/25 02:08:18;;;;;;;5.88;2.03;;;;;;;;;;4996568;28;20049;-76
2022/10/25 02:11:00;;;;;;;8.52;2.28;;;;;;;;;;5091990;28;20034;-76
2022/10/25 02:13:31;;;;;;;7.72;2.47;;;;;;;;;;5092088;28;20445;-76
2022/10/25 02:16:10;;;;;;;8.45;2.05;;;;;;;;;;5091952;28;20107;-76
2022/10/25 02:18:40;;;;;;;9.80;2.00;;;;;;;;;;5087141;28;20039;-76
2022/10/25 02:21:06;;;;;;;6.67;2.20;;;;;;;;;;5097099;28;20028;-76
2022/10/25 02:23:34;;;;;;;4.50;1.98;;;;;;;;;;5073763;28;20559;-76
2022/10/25 02:26:01;;;;;;;7.43;2.20;;;;;;;;;;5091553;28;20081;-76
2022/10/25 02:28:28;;;;;;;10.07;2.40;;;;;;;;;;5073470;28;20376;-76
2022/10/25 02:30:55;;;;;;;7.88;1.90;;;;;;;;;;5091498;28;20080;-75
2022/10/25 02:33:21;;;;;;;10.82;2.45;;;;;;;;;;5091832;28;20099;-76
2022/10/25 02:36:08;;;;;;;7.53;2.17;;;;;;;;;;5091612;28;20107;-76
2022/10/25 02:38:34;;;;;;;5.05;1.90;;;;;;;;;;5091696;28;20032;-76
2022/10/25 02:41:02;;;;;;;8.30;2.10;;;;;;;;;;5091188;28;20456;-76
2022/10/25 02:43:27;;;;;;;8.13;2.40;;;;;;;;;;5072865;28;20032;-75
2022/10/25 02:45:53;;;;;;;7.28;2.20;;;;;;;;;;5091444;28;20093;-76
2022/10/25 02:48:18;;;;;;;6.75;2.00;;;;;;;;;;5090220;28;20028;-76
2022/10/25 02:50:44;;;;;;;6.45;2.15;;;;;;;;;;5091764;28;20170;-76
2022/10/25 02:53:09;;;;;;;6.20;2.17;;;;;;;;;;5073263;28;20036;-76
2022/10/25 02:55:34;;;;;;;8.40;2.13;;;;;;;;;;5090934;28;20086;-76
2022/10/25 02:58:00;;;;;;;8.15;2.28;;;;;;;;;;5091064;28;20034;-75
2022/10/25 03:00:28;;;;;;;8.98;2.22;;;;;;;;;;5072710;28;20556;-76
2022/10/25 03:02:53;;;;;;;5.68;2.15;;;;;;;;;;5091171;28;20543;-76
2022/10/25 03:05:19;;;;;;;7.03;2.00;;;;;;;;;;5072746;28;20120;-76
2022/10/25 03:07:44;;;;;;;6.90;2.13;;;;;;;;;;5091147;28;20073;-75
2022/10/25 03:10:09;;;;;;;9.02;1.98;;;;;;;;;;5090892;28;20117;-76
2022/10/25 03:12:35;;;;;;;6.45;2.00;;;;;;;;;;5090880;28;20046;-76
2022/10/25 03:15:00;;;;;;;9.90;2.40;;;;;;;;;;5090942;28;20031;-76
2022/10/25 03:17:26;;;;;;;7.65;1.90;;;;;;;;;;5090996;28;20059;-76
2022/10/25 03:19:51;;;;;;;5.95;1.95;;;;;;;;;;5090910;28;20422;-76
2022/10/25 03:22:16;;;;;;;6.80;1.90;;;;;;;;;;5090612;28;20027;-76
2022/10/25 03:24:42;;;;;;;6.80;1.98;;;;;;;;;;5089554;28;20024;-76
2022/10/25 03:27:07;;;;;;;7.00;2.28;;;;;;;;;;5090397;28;20035;-76
2022/10/25 03:29:33;;;;;;;6.15;1.88;;;;;;;;;;5090862;28;20055;-76
2022/10/25 03:31:58;;;;;;;8.98;2.10;;;;;;;;;;5090337;28;20047;-75
2022/10/25 03:34:23;;;;;;;6.38;2.17;;;;;;;;;;5090572;28;20023;-76
2022/10/25 03:36:49;;;;;;;8.07;1.92;;;;;;;;;;5090378;28;20633;-76
2022/10/25 03:39:14;;;;;;;4.00;1.83;;;;;;;;;;5090995;28;20024;-76
2022/10/25 03:41:40;;;;;;;8.15;2.20;;;;;;;;;;5090074;28;20056;-76
2022/10/25 03:44:05;;;;;;;11.50;2.13;;;;;;;;;;5089163;28;20016;-76
2022/10/25 03:46:30;;;;;;;13.75;2.20;;;;;;;;;;5090752;28;20032;-76
2022/10/25 03:48:57;;;;;;;9.48;2.00;;;;;;;;;;5090440;28;20054;-76
2022/10/25 03:51:22;;;;;;;9.20;2.28;;;;;;;;;;5072108;28;20132;-75
2022/10/25 03:53:47;;;;;;;17.33;2.67;;;;;;;;;;5088012;28;20070;-77
2022/10/25 03:56:13;;;;;;;19.60;2.50;;;;;;;;;;5092274;28;20403;-76
2022/10/25 03:58:38;;;;;;;16.60;2.72;;;;;;;;;;5090177;28;20020;-76
2022/10/25 04:01:07;;;;;;;12.55;2.15;;;;;;;;;;5089911;28;20024;-76
2022/10/25 04:03:33;;;;;;;12.45;2.28;;;;;;;;;;5092106;28;20028;-76
2022/10/25 04:05:58;;;;;;;14.15;2.67;;;;;;;;;;5090052;28;20034;-76
2022/10/25 04:08:23;;;;;;;7.05;2.20;;;;;;;;;;5090048;28;20058;-76
2022/10/25 04:10:49;;;;;;;13.30;2.25;;;;;;;;;;5089670;28;20027;-76
2022/10/25 04:13:14;;;;;;;11.65;2.35;;;;;;;;;;5089915;28;20361;-76
2022/10/25 04:15:40;;;;;;;9.57;1.90;;;;;;;;;;5090093;28;20070;-76
2022/10/25 04:18:05;;;;;;;7.07;2.10;;;;;;;;;;5089838;28;20028;-76
2022/10/25 04:20:30;;;;;;;7.47;1.92;;;;;;;;;;5089953;28;20016;-77
2022/10/25 04:22:56;;;;;;;10.48;1.83;;;;;;;;;;5090507;28;20154;-77
2022/10/25 04:25:26;;;;;;;5.93;1.88;;;;;;;;;;5089790;28;20467;-76
2022/10/25 04:27:52;;;;;;;9.65;1.92;;;;;;;;;;5089529;28;20028;-76
2022/10/25 04:30:18;;;;;;;6.90;2.13;;;;;;;;;;5089764;28;20051;-76
2022/10/25 04:32:43;;;;;;;8.15;2.00;;;;;;;;;;5089659;28;20032;-76
2022/10/25 04:35:09;;;;;;;8.75;2.00;;;;;;;;;;5089893;28;20028;-77
2022/10/25 04:37:34;;;;;;;5.45;1.90;;;;;;;;;;5089538;28;20050;-76
2022/10/25 04:40:00;;;;;;;8.13;2.15;;;;;;;;;;5088554;28;20535;-76
2022/10/25 04:42:25;;;;;;;8.80;2.10;;;;;;;;;;5089167;28;20024;-76
2022/10/25 04:44:51;;;;;;;8.75;2.00;;;;;;;;;;5089660;28;20115;-76
2022/10/25 04:47:16;;;;;;;7.20;1.83;;;;;;;;;;5090093;28;20093;-77
2022/10/25 04:49:41;;;;;;;10.02;2.00;;;;;;;;;;5092313;28;20063;-76
2022/10/25 04:52:07;;;;;;;5.07;1.90;;;;;;;;;;5089433;28;20021;-77
2022/10/25 04:54:32;;;;;;;6.88;2.00;;;;;;;;;;5089669;28;20044;-76
2022/10/25 04:56:58;;;;;;;9.20;2.10;;;;;;;;;;5088048;28;20028;-77
2022/10/25 04:59:23;;;;;;;4.18;2.00;;;;;;;;;;5090021;28;20495;-77
2022/10/25 05:01:49;;;;;;;4.85;1.75;;;;;;;;;;5071492;28;20020;-77
2022/10/25 05:04:14;;;;;;;5.57;2.03;;;;;;;;;;5090128;28;20028;-77
2022/10/25 05:06:40;;;;;;;6.63;1.95;;;;;;;;;;5092747;28;20036;-76
2022/10/25 05:09:05;;;;;;;7.43;2.15;;;;;;;;;;5095959;28;20144;-77
2022/10/25 05:11:31;;;;;;;5.68;1.80;;;;;;;;;;5093233;28;20118;-77
2022/10/25 05:13:56;;;;;;;5.05;1.80;;;;;;;;;;5093489;28;20028;-77
2022/10/25 05:16:23;;;;;;;5.80;1.73;;;;;;;;;;5093397;28;20482;-76
2022/10/25 05:18:53;;;;;;;4.68;1.52;;;;;;;;;;5095772;28;20035;-75
2022/10/25 05:21:18;;;;;;;5.60;1.65;;;;;;;;;;5093111;28;20677;-76
2022/10/25 05:23:45;;;;;;;6.35;2.10;;;;;;;;;;5098095;28;20058;-76
2022/10/25 05:26:13;;;;;;;7.07;1.60;;;;;;;;;;5075041;28;20405;-76
2022/10/25 05:28:40;;;;;;;5.05;1.48;;;;;;;;;;5074747;28;20020;-76
2022/10/25 05:31:06;;;;;;;6.32;1.60;;;;;;;;;;5092980;28;20070;-76
2022/10/25 05:33:32;;;;;;;8.32;1.73;;;;;;;;;;5092765;28;20043;-75
2022/10/25 05:35:59;;;;;;;6.85;1.50;;;;;;;;;;5091558;28;20060;-76
2022/10/25 05:38:24;;;;;;;4.35;1.50;;;;;;;;;;5093352;28;20026;-76
2022/10/25 05:40:58;;;;;;;6.55;1.52;;;;;;;;;;5092829;28;20024;-75
2022/10/25 05:43:24;;;;;;;6.50;1.33;;;;;;;;;;5074310;28;20395;-76
2022/10/25 05:45:50;;;;;;;5.28;1.55;;;;;;;;;;5092640;28;20024;-76
2022/10/25 05:48:17;;;;;;;6.22;1.60;;;;;;;;;;5092654;28;20521;-76
2022/10/25 05:50:43;;;;;;;5.53;1.40;;;;;;;;;;5092593;28;20020;-76
2022/10/25 05:53:09;;;;;;;7.88;1.88;;;;;;;;;;5075041;28;20047;-77
2022/10/25 05:55:35;;;;;;;6.95;1.60;;;;;;;;;;5092074;28;20122;-77
2022/10/25 05:58:01;;;;;;;8.60;1.70;;;;;;;;;;5092120;28;20035;-77
2022/10/25 06:00:26;;;;;;;5.10;1.55;;;;;;;;;;5092538;28;20024;-77
2022/10/25 06:02:51;;;;;;;5.05;1.65;;;;;;;;;;5091948;28;20072;-78
2022/10/25 06:05:17;;;;;;;8.45;1.58;;;;;;;;;;5092199;28;20032;-84
2022/10/25 06:07:42;;;;;;;6.70;1.50;;;;;;;;;;5091324;28;20085;-82
2022/10/25 06:10:08;;;;;;;6.93;1.60;;;;;;;;;;5093107;28;20383;-82
2022/10/25 06:12:33;;;;;;;13.23;1.90;;;;;;;;;;5073823;28;20024;-76
2022/10/25 06:14:59;;;;;;;8.23;1.60;;;;;;;;;;5092084;28;20031;-73
2022/10/25 06:17:24;;;;;;;5.63;1.50;;;;;;;;;;5091587;28;20464;-78
2022/10/25 06:19:49;;;;;;;9.27;1.70;;;;;;;;;;5091995;28;20028;-77
2022/10/25 06:22:15;;;;;;;6.95;2.17;;;;;;;;;;5091980;28;20028;-81
2022/10/25 06:24:40;;;;;;;5.55;1.83;;;;;;;;;;5091992;28;20055;-82
2022/10/25 06:27:06;;;;;;;10.13;1.92;;;;;;;;;;5096734;28;20043;-80
2022/10/25 06:29:32;;;;;;;9.50;2.00;;;;;;;;;;5091713;28;20085;-77
2022/10/25 06:32:01;;;;;;;7.40;1.90;;;;;;;;;;5091866;28;20028;-79
2022/10/25 06:34:44;;;;;;;8.05;2.20;;;;;;;;;;5091475;28;20070;-83
2022/10/25 06:37:09;;;;;;;6.35;2.05;;;;;;;;;;5092058;28;20024;-81
2022/10/25 06:39:35;;;;;;;8.40;2.15;;;;;;;;;;5091677;28;20023;-83
2022/10/25 06:42:01;;;;;;;8.57;2.20;;;;;;;;;;5091551;28;20161;-80
2022/10/25 06:44:26;;;;;;;10.93;2.08;;;;;;;;;;5091259;28;20099;-84
2022/10/25 06:46:52;;;;;;;10.13;2.10;;;;;;;;;;5091202;28;20052;-88
2022/10/25 06:49:17;;;;;;;14.85;2.72;;;;;;;;;;5091239;28;20532;-84
2022/10/25 06:51:43;;;;;;;15.23;2.13;;;;;;;;;;5090229;28;20463;-77
2022/10/25 06:54:08;;;;;;;21.13;2.50;;;;;;;;;;5096225;28;20052;-80
2022/10/25 06:56:34;;;;;;;12.15;2.10;;;;;;;;;;5091740;28;20499;-83
2022/10/25 06:59:00;;;;;;;7.65;2.15;;;;;;;;;;5091243;28;20028;-82
2022/10/25 07:01:26;;;;;;;10.10;2.00;;;;;;;;;;5072912;28;20107;-80
2022/10/25 07:03:53;;;;;;;11.07;2.47;;;;;;;;;;5091183;28;20629;-82
2022/10/25 07:06:28;;;;;;;13.73;2.28;;;;;;;;;;5090703;28;20091;-82
2022/10/25 07:09:00;;;;;;;10.15;2.13;;;;;;;;;;5084116;28;20052;-80
2022/10/25 07:11:28;;;;;;;13.70;2.10;;;;;;;;;;5081832;28;20442;-80
2022/10/25 07:13:55;;;;;;;8.52;2.00;;;;;;;;;;5070601;28;20023;-78
2022/10/25 07:16:20;;;;;;;7.78;2.10;;;;;;;;;;5085251;28;20012;-79
2022/10/25 07:18:47;;;;;;;9.93;2.00;;;;;;;;;;5092236;28;20035;-78
2022/10/25 07:21:15;;;;;;;7.15;2.35;;;;;;;;;;5093565;28;20040;-76
2022/10/25 07:23:41;;;;;;;15.43;2.40;;;;;;;;;;5085650;28;20097;-75
2022/10/25 07:26:33;;;;;;;13.85;2.30;;;;;;;;;;5052757;28;20450;-77
2022/10/25 07:29:00;;;;;;;11.32;2.25;;;;;;;;;;5059096;28;20123;-76
2022/10/25 07:31:28;;;;;;;6.60;2.00;;;;;;;;;;5070535;28;20056;-76
2022/10/25 07:33:57;;;;;;;11.93;2.25;;;;;;;;;;5069931;28;20063;-76
2022/10/25 07:36:22;;;;;;;11.93;2.33;;;;;;;;;;5068976;28;20032;-86
2022/10/25 07:38:47;;;;;;;14.32;2.70;;;;;;;;;;5088616;28;20036;-82
2022/10/25 07:41:13;;;;;;;13.20;2.60;;;;;;;;;;5095283;28;20518;-80
2022/10/25 07:43:38;;;;;;;9.38;2.50;;;;;;;;;;5089920;28;20036;-80
2022/10/25 07:46:05;;;;;;;10.93;2.40;;;;;;;;;;5094743;28;20031;-82
2022/10/25 07:48:30;;;;;;;9.38;2.15;;;;;;;;;;5087818;28;20037;-76
2022/10/25 07:50:56;;;;;;;10.20;2.30;;;;;;;;;;5070231;28;20078;-79
2022/10/25 07:53:21;;;;;;;13.57;2.25;;;;;;;;;;5071367;28;20047;-79
2022/10/25 07:55:51;;;;;;;10.20;2.30;;;;;;;;;;5071770;28;20523;-79
2022/10/25 07:58:16;;;;;;;12.43;2.10;;;;;;;;;;5068602;28;20112;-79
2022/10/25 08:00:43;;;;;;;12.70;1.95;;;;;;;;;;5069641;28;20443;-78
2022/10/25 08:03:08;;;;;;;11.93;2.00;;;;;;;;;;5069805;28;20078;-78
2022/10/25 08:05:33;;;;;;;15.63;2.35;;;;;;;;;;5069665;28;20035;-78
2022/10/25 08:07:59;;;;;;;17.25;2.42;;;;;;;;;;5069911;28;20479;-78
2022/10/25 08:10:24;;;;;;;13.43;2.38;;;;;;;;;;5069984;28;20052;-78
2022/10/25 08:12:50;;;;;;;13.57;2.28;;;;;;;;;;5069956;28;20033;-79
2022/10/25 08:15:16;;;;;;;11.50;2.42;;;;;;;;;;5072463;28;20021;-79
2022/10/25 08:17:42;;;;;;;10.57;2.40;;;;;;;;;;5070357;28;20050;-78
2022/10/25 08:20:08;;;;;;;12.07;2.40;;;;;;;;;;5068537;28;20033;-78
2022/10/25 08:22:34;;;;;;;12.77;2.42;;;;;;;;;;5069573;28;20056;-79
2022/10/25 08:24:59;;;;;;;8.55;2.50;;;;;;;;;;5069553;28;20052;-79
2022/10/25 08:27:25;;;;;;;11.75;2.17;;;;;;;;;;5069623;28;20047;-79
2022/10/25 08:29:51;;;;;;;7.93;2.00;;;;;;;;;;5051504;28;20054;-79
2022/10/25 08:32:16;;;;;;;7.60;1.75;;;;;;;;;;5069491;28;20496;-79
2022/10/25 08:34:41;;;;;;;7.13;2.00;;;;;;;;;;5069413;28;20056;-79
2022/10/25 08:37:10;;;;;;;9.00;2.20;;;;;;;;;;5069813;28;20415;-78
2022/10/25 08:39:35;;;;;;;8.32;2.20;;;;;;;;;;5069514;28;20124;-78
2022/10/25 08:42:02;;;;;;;9.57;2.30;;;;;;;;;;5073425;28;20120;-78
2022/10/25 08:44:54;;;;;;;9.10;2.65;;;;;;;;;;5076187;28;20039;-79
2022/10/25 08:47:33;;;;;;;8.70;2.38;;;;;;;;;;5093920;28;20131;-80
2022/10/25 08:50:09;;;;;;;6.75;2.50;;;;;;;;;;5093563;28;20024;-80
2022/10/25 08:52:46;;;;;;;11.02;3.28;;;;;;;;;;5093846;28;20557;-81
2022/10/25 08:55:34;;;;;;;9.50;3.40;;;;;;;;;;5093531;28;20543;-80
2022/10/25 08:58:02;;;;;;;9.75;2.88;;;;;;;;;;5094342;28;20077;-78
2022/10/25 09:00:34;;;;;;;11.13;2.70;;;;;;;;;;5096580;28;20024;-78
2022/10/25 09:03:01;;;;;;;7.90;2.08;;;;;;;;;;5093594;28;20032;-79
2022/10/25 09:05:51;;;;;;;6.15;2.08;;;;;;;;;;5093330;28;20115;-79
2022/10/25 09:08:57;;;;;;;9.57;2.58;;;;;;;;;;5097203;28;20045;-78
2022/10/25 09:11:44;;;;;;;10.75;2.20;;;;;;;;;;5095842;28;20032;-79
2022/10/25 09:14:30;;;;;;;9.32;2.35;;;;;;;;;;5093548;28;20531;-80
2022/10/25 09:17:03;;;;;;;10.10;2.35;;;;;;;;;;5093239;28;20020;-79
2022/10/25 09:19:34;;;;;;;9.93;2.42;;;;;;;;;;5094807;28;20039;-78
2022/10/25 09:22:02;;;;;;;8.15;2.33;;;;;;;;;;5093251;28;20035;-78
2022/10/25 09:24:44;;;;;;;12.82;2.40;;;;;;;;;;5092787;28;20028;-79
2022/10/25 09:27:37;;;;;;;15.27;2.75;;;;;;;;;;5092803;28;20108;-78
2022/10/25 09:30:11;;;;;;;10.50;2.47;;;;;;;;;;5090047;28;20028;-79
2022/10/25 09:32:49;;;;;;;9.05;2.22;;;;;;;;;;5093031;28;20043;-78
2022/10/25 09:35:27;;;;;;;15.98;2.60;;;;;;;;;;5096238;28;20024;-78
2022/10/25 09:37:58;;;;;;;11.50;2.88;;;;;;;;;;5093016;28;20393;-78
2022/10/25 09:40:28;;;;;;;16.30;2.70;;;;;;;;;;5093803;28;20514;-79
2022/10/25 09:43:03;;;;;;;14.20;2.97;;;;;;;;;;5074032;28;20024;-79
2022/10/25 09:45:54;;;;;;;16.63;3.13;;;;;;;;;;5092623;28;20031;-79
2022/10/25 09:48:37;;;;;;;16.50;2.97;;;;;;;;;;5092674;28;20026;-79
2022/10/25 09:51:24;;;;;;;15.50;2.65;;;;;;;;;;5092177;28;20027;-79
2022/10/25 09:53:50;;;;;;;15.85;3.10;;;;;;;;;;5091766;28;20055;-80
2022/10/25 09:56:16;;;;;;;12.95;3.00;;;;;;;;;;5092232;28;20032;-81
2022/10/25 09:58:46;;;;;;;14.00;2.78;;;;;;;;;;5092325;28;20080;-74
2022/10/25 10:01:17;;;;;;;16.05;3.03;;;;;;;;;;5094302;28;20387;-80
2022/10/25 10:03:42;;;;;;;13.77;2.85;;;;;;;;;;5082507;28;20506;-88
2022/10/25 10:06:21;;;;;;;11.30;2.80;;;;;;;;;;5074728;28;20032;-79
2022/10/25 10:08:59;;;;;;;16.58;2.90;;;;;;;;;;5073667;28;20028;-81
2022/10/25 10:11:25;;;;;;;12.05;3.15;;;;;;;;;;5079747;28;20020;-81
2022/10/25 10:14:09;;;;;;;14.93;2.95;;;;;;;;;;5092762;28;20020;-75
2022/10/25 10:16:40;;;;;;;13.40;3.05;;;;;;;;;;5092042;28;20070;-77
2022/10/25 10:19:18;;;;;;;10.48;3.08;;;;;;;;;;5091405;28;20032;-77
2022/10/25 10:21:45;;;;;;;15.73;2.95;;;;;;;;;;5071000;28;20020;-77
2022/10/25 10:24:30;;;;;;;14.25;3.30;;;;;;;;;;5070199;28;20024;-77
2022/10/25 10:26:58;;;;;;;13.95;3.13;;;;;;;;;;5071672;28;20040;-79
2022/10/25 10:29:27;;;;;;;14.18;3.05;;;;;;;;;;5070635;28;20028;-79
2022/10/25 10:31:55;;;;;;;14.07;2.95;;;;;;;;;;5072329;28;20435;-76
2022/10/25 10:34:31;;;;;;;14.98;3.35;;;;;;;;;;5071541;28;20529;-78
2022/10/25 10:37:11;;;;;;;9.88;2.75;;;;;;;;;;5073182;28;20495;-79
2022/10/25 10:39:52;;;;;;;12.38;2.78;;;;;;;;;;5071600;28;20107;-78
2022/10/25 10:42:20;;;;;;;14.07;3.08;;;;;;;;;;5071094;28;20523;-83
2022/10/25 10:45:04;;;;;;;11.25;3.15;;;;;;;;;;5073719;28;20021;-79
2022/10/25 10:47:35;;;;;;;12.65;2.83;;;;;;;;;;5070999;28;20032;-78
2022/10/25 10:50:09;;;;;;;15.93;3.33;;;;;;;;;;5075943;28;20020;-77
2022/10/25 10:52:43;;;;;;;14.65;2.70;;;;;;;;;;5070982;28;20074;-77
2022/10/25 10:55:28;;;;;;;14.77;3.05;;;;;;;;;;5070590;28;20048;-79
2022/10/25 10:57:55;;;;;;;16.25;3.00;;;;;;;;;;5076803;28;20312;-76
2022/10/25 11:00:27;;;;;;;12.32;3.00;;;;;;;;;;5071702;28;20017;-79
2022/10/25 11:02:53;;;;;;;12.55;3.13;;;;;;;;;;5070620;28;20020;-77
2022/10/25 11:05:20;;;;;;;14.05;3.80;;;;;;;;;;5070768;28;20029;-75
2022/10/25 11:07:54;;;;;;;14.93;3.20;;;;;;;;;;5075686;28;20054;-76
2022/10/25 11:10:30;;;;;;;13.93;3.40;;;;;;;;;;5096046;28;20024;-75
2022/10/25 11:13:12;;;;;;;14.57;3.47;;;;;;;;;;5078000;28;20056;-75
2022/10/25 11:15:43;;;;;;;14.73;3.08;;;;;;;;;;5075221;28;20019;-75
2022/10/25 11:18:12;;;;;;;15.38;3.65;;;;;;;;;;5084333;28;20083;-75
2022/10/25 11:20:55;;;;;;;17.05;3.42;;;;;;;;;;5083972;28;20039;-75
2022/10/25 11:23:27;;;;;;;13.07;3.30;;;;;;;;;;5093753;28;20723;-75
2022/10/25 11:26:16;;;;;;;15.93;3.70;;;;;;;;;;5079298;28;20036;-75
2022/10/25 11:29:06;;;;;;;17.73;4.22;;;;;;;;;;5076055;28;20028;-76
2022/10/25 11:31:38;;;;;;;12.63;3.30;;;;;;;;;;5077444;28;20089;-77
2022/10/25 11:34:15;;;;;;;18.52;3.33;;;;;;;;;;5076180;28;20035;-78
2022/10/25 11:36:52;;;;;;;11.65;3.35;;;;;;;;;;5070995;28;20031;-78
2022/10/25 11:39:40;;;;;;;15.20;3.40;;;;;;;;;;5073626;28;20075;-77
2022/10/25 11:42:14;;;;;;;18.02;3.97;;;;;;;;;;5073332;28;20016;-77
2022/10/25 11:45:21;;;;;;;22.13;4.10;;;;;;;;;;5053044;28;20089;-77
2022/10/25 11:48:05;;;;;;;15.93;3.47;;;;;;;;;;5054095;28;20035;-75
2022/10/25 11:50:46;;;;;;;16.55;3.80;;;;;;;;;;5071912;28;20598;-75
2022/10/25 11:53:14;;;;;;;12.10;3.28;;;;;;;;;;5069826;28;20044;-74
2022/10/25 11:55:39;;;;;;;14.68;3.55;;;;;;;;;;5069939;28;20053;-74
2022/10/25 11:58:27;;;;;;;18.52;3.58;;;;;;;;;;5069978;28;20086;-77
2022/10/25 12:01:13;;;;;;;16.45;3.50;;;;;;;;;;5071069;28;20021;-77
2022/10/25 12:03:55;;;;;;;19.77;3.72;;;;;;;;;;5078969;28;20098;-78
2022/10/25 12:06:44;;;;;;;16.45;3.75;;;;;;;;;;5059311;28;20394;-77
2022/10/25 12:09:31;;;;;;;17.23;4.00;;;;;;;;;;5086964;28;20434;-80
2022/10/25 12:12:01;;;;;;;18.55;3.65;;;;;;;;;;5098978;28;20032;-80
2022/10/25 12:14:33;;;;;;;21.17;4.00;;;;;;;;;;5093782;28;20066;-80
2022/10/25 12:17:00;;;;;;;10.90;3.10;;;;;;;;;;5096272;28;20556;-80
2022/10/25 12:19:29;;;;;;;15.93;3.72;;;;;;;;;;5094781;28;20024;-81
2022/10/25 12:22:06;;;;;;;16.35;3.70;;;;;;;;;;5098883;28;20031;-81
2022/10/25 12:24:46;;;;;;;14.90;3.60;;;;;;;;;;5093795;28;20554;-82
2022/10/25 12:27:21;;;;;;;19.15;3.88;;;;;;;;;;5099042;28;20049;-81
2022/10/25 12:29:52;;;;;;;25.77;3.83;;;;;;;;;;5062850;28;20204;-82
2022/10/25 12:32:26;;;;;;;13.15;3.50;;;;;;;;;;5082199;28;20028;-79
2022/10/25 12:34:58;;;;;;;14.40;3.80;;;;;;;;;;5100874;28;20247;-79
2022/10/25 12:37:35;;;;;;;17.35;3.65;;;;;;;;;;5100957;28;20024;-79
2022/10/25 12:40:01;;;;;;;18.05;3.97;;;;;;;;;;5098959;28;20067;-79
2022/10/25 12:42:26;;;;;;;14.80;3.47;;;;;;;;;;5101069;28;20020;-78
2022/10/25 12:45:00;;;;;;;16.65;3.70;;;;;;;;;;5092723;28;20048;-81
2022/10/25 12:48:07;;;;;;;13.68;3.78;;;;;;;;;;5101115;28;20035;-78
2022/10/25 12:50:41;;;;;;;14.13;3.88;;;;;;;;;;5053248;28;20032;-76
2022/10/25 12:53:51;;;;;;;17.10;3.67;;;;;;;;;;5101471;28;20365;-75
2022/10/25 12:56:42;;;;;;;14.80;3.87;;;;;;;;;;5052104;28;20086;-74
2022/10/25 12:59:39;;;;;;;14.25;3.35;;;;;;;;;;5088259;28;20258;-77
2022/10/25 13:02:20;;;;;;;15.23;3.80;;;;;;;;;;5099918;28;20052;-77
2022/10/25 13:05:00;;;;;;;;;;;;;;;;;;5100129;28;20035;-77
2022/10/25 13:07:31;;;;;;;15.77;3.30;;;;;;;;;;5091511;28;19960;-77
2022/10/25 13:10:06;;;;;;;;;;;;;;;;;;5096721;28;20046;-77
2022/10/25 13:12:32;;;;;;;14.30;3.65;;;;;;;;;;5100654;28;19932;-76
2022/10/25 13:14:59;;;;;;;13.40;3.38;;;;;;;;;;5097819;28;20029;-76
2022/10/25 13:17:24;;;;;;;12.73;3.55;;;;;;;;;;5080584;28;20021;-76
2022/10/25 13:20:17;;;;;;;13.55;3.45;;;;;;;;;;5080615;28;20112;-76
2022/10/25 13:22:43;;;;;;;13.90;3.50;;;;;;;;;;5079460;28;20450;-77
2022/10/25 13:25:11;;;;;;;13.48;3.70;;;;;;;;;;5080285;28;20031;-76
2022/10/25 13:27:37;;;;;;;13.73;3.72;;;;;;;;;;5082204;28;20028;-77
2022/10/25 13:30:22;;;;;;;17.63;3.95;;;;;;;;;;5082707;28;20039;-77
2022/10/25 13:33:26;;;;;;;9.57;3.25;;;;;;;;;;5084227;28;20331;-77
2022/10/25 13:35:52;;;;;;;13.10;3.58;;;;;;;;;;5094520;28;20087;-77
2022/10/25 13:38:29;;;;;;;13.15;3.50;;;;;;;;;;5104272;28;20023;-76
2022/10/25 13:41:16;;;;;;;14.20;3.78;;;;;;;;;;5100548;28;20060;-76
2022/10/25 13:44:02;;;;;;;13.43;3.78;;;;;;;;;;5091213;28;20030;-76
2022/10/25 13:46:36;;;;;;;11.95;3.67;;;;;;;;;;5104586;28;20024;-77
2022/10/25 13:49:23;;;;;;;14.10;3.80;;;;;;;;;;5104600;28;20054;-77
2022/10/25 13:51:52;;;;;;;15.52;3.90;;;;;;;;;;5104731;28;20055;-77
2022/10/25 13:54:18;;;;;;;18.45;3.70;;;;;;;;;;5103914;28;20445;-76
2022/10/25 13:56:52;;;;;;;15.00;4.15;;;;;;;;;;5104078;28;20028;-77
2022/10/25 13:59:35;;;;;;;13.80;4.00;;;;;;;;;;5103691;28;20024;-78
2022/10/25 14:02:18;;;;;;;17.33;4.05;;;;;;;;;;5104355;28;20020;-77
2022/10/25 14:04:44;;;;;;;15.70;3.90;;;;;;;;;;5104356;28;20298;-76
2022/10/25 14:07:42;;;;;;;18.48;4.03;;;;;;;;;;5104256;28;20031;-77
2022/10/25 14:10:15;;;;;;;10.32;3.58;;;;;;;;;;5093920;28;20101;-77
2022/10/25 14:12:47;;;;;;;13.98;4.10;;;;;;;;;;5097411;28;20027;-76
2022/10/25 14:15:47;;;;;;;12.40;3.50;;;;;;;;;;5103434;28;20016;-78
2022/10/25 14:18:15;;;;;;;;;;;;;;;;;;5084919;28;20036;-77
2022/10/25 14:20:45;;;;;;;17.63;4.07;;;;;;;;;;5103554;28;19908;-77
2022/10/25 14:23:19;;;;;;;10.98;4.00;;;;;;;;;;5103498;28;20020;-76
2022/10/25 14:25:52;;;;;;;19.23;3.92;;;;;;;;;;5103135;28;20020;-76
2022/10/25 14:28:29;;;;;;;13.55;3.90;;;;;;;;;;5102986;28;20316;-77
2022/10/25 14:30:59;;;;;;;13.75;4.07;;;;;;;;;;5085561;28;20035;-78
2022/10/25 14:33:31;;;;;;;;;;;;;;;;;;5103446;28;20070;-78
2022/10/25 14:36:06;;;;;;;14.35;3.83;;;;;;;;;;5103231;28;19985;-76
2022/10/25 14:38:36;;;;;;;13.65;3.65;;;;;;;;;;5093525;28;20016;-77
2022/10/25 14:41:10;;;;;;;14.98;4.05;;;;;;;;;;5089188;28;20027;-75
2022/10/25 14:43:37;;;;;;;14.80;4.03;;;;;;;;;;5097681;28;20153;-78
2022/10/25 14:46:13;;;;;;;13.70;3.90;;;;;;;;;;5102674;28;20073;-78
2022/10/25 14:48:46;;;;;;;15.43;3.85;;;;;;;;;;5094880;28;20020;-77
2022/10/25 14:51:42;;;;;;;14.68;4.00;;;;;;;;;;5102941;28;20020;-77
2022/10/25 14:54:24;;;;;;;17.17;3.95;;;;;;;;;;5084162;28;20054;-78
2022/10/25 14:56:59;;;;;;;15.82;3.80;;;;;;;;;;5096117;28;20027;-77
2022/10/25 14:59:29;;;;;;;16.02;4.20;;;;;;;;;;5102880;28;20054;-78
2022/10/25 15:02:03;;;;;;;;;;;;;;;;;;5103242;28;20016;-78
2022/10/25 15:04:31;;;;;;;19.92;4.10;;;;;;;;;;5084632;28;19907;-83
2022/10/25 15:06:57;;;;;;;16.58;3.95;;;;;;;;;;5101336;28;20341;-78